createdAt,value
2018-08-28T00:00:15.304Z,19.20
2018-08-28T00:03:13.388Z,19.20
2018-08-28T00:06:12.338Z,19.20
2018-08-28T00:09:10.409Z,19.20
2018-08-28T00:12:08.470Z,19.20
2018-08-28T00:15:06.733Z,19.20
2018-08-28T00:18:04.792Z,19.30
2018-08-28T00:21:02.755Z,19.40
2018-08-28T00:24:02.677Z,19.50
2018-08-28T00:27:00.821Z,19.50
2018-08-28T00:29:58.870Z,19.60
2018-08-28T00:32:58.083Z,19.70
2018-08-28T00:35:56.232Z,19.80
2018-08-28T00:38:54.284Z,19.80
2018-08-28T00:41:52.247Z,19.90
2018-08-28T00:44:50.612Z,19.90
2018-08-28T00:47:48.975Z,19.90
2018-08-28T00:50:46.936Z,19.90
2018-08-28T00:53:45.004Z,19.90
2018-08-28T00:56:43.060Z,19.90
2018-08-28T00:59:41.026Z,19.80
2018-08-28T01:02:39.173Z,19.70
2018-08-28T01:05:37.123Z,19.60
2018-08-28T01:08:35.099Z,19.50
2018-08-28T01:11:33.996Z,19.50
2018-08-28T01:14:32.191Z,19.50
2018-08-28T01:17:30.183Z,19.40
2018-08-28T01:20:28.048Z,19.30
2018-08-28T01:23:26.212Z,19.20
2018-08-28T01:26:25.200Z,19.10
2018-08-28T01:29:24.297Z,19.00
2018-08-28T01:32:22.548Z,18.80
2018-08-28T01:35:20.718Z,18.60
2018-08-28T01:38:18.871Z,18.50
2018-08-28T01:41:17.043Z,18.40
2018-08-28T01:44:14.988Z,18.30
2018-08-28T01:47:13.046Z,18.20
2018-08-28T01:50:11.086Z,18.10
2018-08-28T01:53:09.272Z,18.10
2018-08-28T01:56:07.324Z,18.00
2018-08-28T01:59:05.595Z,17.90
2018-08-28T02:02:03.764Z,17.80
2018-08-28T02:05:02.129Z,17.70
2018-08-28T02:08:01.108Z,17.60
2018-08-28T02:10:59.376Z,17.60
2018-08-28T02:13:57.539Z,17.50
2018-08-28T02:16:55.422Z,17.40
2018-08-28T02:19:53.510Z,17.40
2018-08-28T02:22:51.832Z,17.30
2018-08-28T02:25:49.898Z,17.30
2018-08-28T02:28:47.925Z,17.20
2018-08-28T02:31:46.096Z,17.20
2018-08-28T02:34:43.956Z,17.10
2018-08-28T02:37:42.234Z,17.10
2018-08-28T02:40:40.283Z,17.00
2018-08-28T02:43:38.370Z,17.00
2018-08-28T02:46:36.667Z,16.90
2018-08-28T02:49:34.572Z,16.80
2018-08-28T02:52:33.035Z,16.70
2018-08-28T02:55:31.100Z,16.60
2018-08-28T02:58:29.158Z,16.50
2018-08-28T03:01:27.219Z,16.50
2018-08-28T03:04:26.097Z,16.30
2018-08-28T03:07:23.955Z,16.20
2018-08-28T03:10:22.319Z,16.20
2018-08-28T03:13:20.379Z,16.10
2018-08-28T03:16:18.362Z,16.00
2018-08-28T03:19:16.327Z,15.90
2018-08-28T03:22:15.640Z,15.90
2018-08-28T03:25:13.847Z,15.80
2018-08-28T03:28:12.245Z,15.80
2018-08-28T03:31:10.372Z,15.80
2018-08-28T03:34:09.148Z,15.80
2018-08-28T03:38:10.360Z,15.80
2018-08-28T03:41:09.538Z,15.80
2018-08-28T03:44:07.903Z,15.70
2018-08-28T03:47:06.072Z,15.70
2018-08-28T03:50:04.164Z,15.70
2018-08-28T03:53:02.270Z,15.60
2018-08-28T03:56:00.660Z,15.60
2018-08-28T03:58:58.719Z,15.60
2018-08-28T04:01:56.877Z,15.50
2018-08-28T04:04:55.096Z,15.50
2018-08-28T04:07:53.250Z,15.40
2018-08-28T04:10:51.383Z,15.40
2018-08-28T04:13:49.635Z,15.30
2018-08-28T04:16:47.698Z,15.30
2018-08-28T04:19:47.193Z,15.30
2018-08-28T04:22:45.353Z,15.30
2018-08-28T04:25:43.617Z,15.30
2018-08-28T04:28:41.691Z,15.30
2018-08-28T04:31:39.739Z,15.20
2018-08-28T04:34:37.879Z,15.30
2018-08-28T04:37:37.069Z,15.30
2018-08-28T04:40:36.389Z,15.30
2018-08-28T04:43:34.554Z,15.40
2018-08-28T04:46:32.628Z,15.40
2018-08-28T04:49:30.674Z,15.40
2018-08-28T04:52:30.583Z,15.40
2018-08-28T04:55:28.720Z,15.30
2018-08-28T04:58:26.789Z,15.30
2018-08-28T05:01:24.945Z,15.30
2018-08-28T05:04:25.041Z,15.30
2018-08-28T05:07:23.133Z,15.30
2018-08-28T05:10:21.063Z,15.20
2018-08-28T05:13:19.127Z,15.30
2018-08-28T05:16:18.017Z,15.30
2018-08-28T05:19:16.099Z,15.30
2018-08-28T05:25:00.576Z,15.40
2018-08-28T05:27:58.461Z,15.60
2018-08-28T05:30:56.227Z,15.70
2018-08-28T05:33:54.547Z,15.80
2018-08-28T05:36:52.451Z,15.90
2018-08-28T05:39:50.443Z,16.00
2018-08-28T05:42:49.801Z,16.10
2018-08-28T05:45:47.867Z,16.20
2018-08-28T05:48:45.927Z,16.30
2018-08-28T05:51:44.098Z,16.50
2018-08-28T05:54:42.150Z,16.60
2018-08-28T05:57:40.335Z,16.90
2018-08-28T06:00:38.302Z,17.10
2018-08-28T06:03:36.298Z,17.40
2018-08-28T06:06:34.283Z,17.50
2018-08-28T06:09:32.147Z,17.70
2018-08-28T06:12:30.120Z,17.90
2018-08-28T06:15:28.273Z,18.00
2018-08-28T06:18:26.343Z,18.00
2018-08-28T06:21:25.109Z,18.10
2018-08-28T06:24:23.165Z,18.10
2018-08-28T06:27:21.156Z,18.10
2018-08-28T06:30:19.398Z,18.10
2018-08-28T06:33:17.485Z,18.20
2018-08-28T06:36:15.367Z,18.30
2018-08-28T06:39:13.367Z,18.40
2018-08-28T06:42:11.644Z,18.50
2018-08-28T06:45:09.692Z,18.60
2018-08-28T06:48:07.757Z,18.70
2018-08-28T06:51:06.736Z,18.90
2018-08-28T06:54:04.804Z,19.00
2018-08-28T06:57:02.768Z,19.20
2018-08-28T07:00:00.919Z,19.20
2018-08-28T07:02:59.059Z,19.30
2018-08-28T07:05:58.015Z,19.40
2018-08-28T07:08:56.016Z,19.50
2018-08-28T07:11:53.983Z,19.60
2018-08-28T07:14:52.038Z,19.70
2018-08-28T07:17:50.302Z,19.90
2018-08-28T07:20:48.236Z,20.10
2018-08-28T07:23:47.134Z,20.10
2018-08-28T07:26:45.398Z,20.20
2018-08-28T07:29:44.529Z,20.10
2018-08-28T07:32:44.847Z,20.00
2018-08-28T07:35:43.855Z,20.00
2018-08-28T07:38:41.749Z,20.00
2018-08-28T07:41:39.886Z,20.00
2018-08-28T07:44:38.065Z,20.10
2018-08-28T07:47:36.124Z,20.20
2018-08-28T07:50:34.201Z,20.30
2018-08-28T07:53:32.340Z,20.40
2018-08-28T07:56:30.410Z,20.50
2018-08-28T07:59:28.341Z,20.60
2018-08-28T08:02:26.431Z,20.70
2018-08-28T08:05:24.740Z,20.80
2018-08-28T08:08:22.825Z,20.90
2018-08-28T08:11:21.995Z,21.10
2018-08-28T08:14:20.992Z,21.20
2018-08-28T08:17:19.846Z,21.30
2018-08-28T08:20:18.977Z,21.40
2018-08-28T08:23:17.023Z,21.50
2018-08-28T08:26:16.012Z,21.60
2018-08-28T08:29:14.915Z,21.70
2018-08-28T08:32:12.910Z,21.80
2018-08-28T08:35:11.134Z,22.00
2018-08-28T08:38:09.164Z,22.10
2018-08-28T08:41:07.240Z,22.20
2018-08-28T08:44:06.152Z,22.30
2018-08-28T08:47:04.082Z,22.50
2018-08-28T08:50:02.175Z,22.60
2018-08-28T08:53:01.222Z,22.80
2018-08-28T08:55:59.076Z,22.90
2018-08-28T08:58:58.312Z,23.10
2018-08-28T09:01:56.404Z,23.30
2018-08-28T09:04:55.407Z,23.40
2018-08-28T09:07:54.615Z,23.60
2018-08-28T09:10:53.887Z,23.80
2018-08-28T09:13:52.056Z,24.00
2018-08-28T09:16:50.767Z,24.00
2018-08-28T09:19:48.883Z,24.10
2018-08-28T09:22:47.054Z,24.30
2018-08-28T09:25:46.177Z,24.30
2018-08-28T09:28:45.325Z,24.50
2018-08-28T09:31:43.466Z,24.50
2018-08-28T09:34:41.317Z,24.60
2018-08-28T09:37:39.417Z,24.50
2018-08-28T09:40:37.650Z,24.50
2018-08-28T09:43:35.726Z,24.60
2018-08-28T09:46:33.887Z,24.80
2018-08-28T09:49:31.949Z,24.80
2018-08-28T09:52:30.004Z,25.00
2018-08-28T09:55:27.998Z,25.10
2018-08-28T09:58:26.227Z,25.30
2018-08-28T10:01:30.328Z,25.50
2018-08-28T10:04:29.440Z,25.70
2018-08-28T10:07:27.396Z,25.90
2018-08-28T10:10:26.334Z,25.90
2018-08-28T10:13:24.398Z,25.90
2018-08-28T10:16:22.466Z,25.90
2018-08-28T10:19:20.832Z,25.90
2018-08-28T10:22:19.723Z,25.90
2018-08-28T10:25:17.583Z,26.00
2018-08-28T10:28:15.715Z,26.10
2018-08-28T10:31:14.009Z,26.30
2018-08-28T10:34:12.028Z,26.50
2018-08-28T10:37:11.035Z,26.60
2018-08-28T10:40:09.004Z,26.80
2018-08-28T10:43:07.159Z,26.80
2018-08-28T10:46:05.185Z,26.90
2018-08-28T10:49:03.234Z,26.90
2018-08-28T10:52:02.252Z,27.00
2018-08-28T10:55:00.312Z,27.00
2018-08-28T10:57:58.445Z,27.20
2018-08-28T11:00:56.336Z,27.70
2018-08-28T11:03:54.330Z,28.40
2018-08-28T11:06:52.281Z,29.20
2018-08-28T11:09:50.317Z,29.90
2018-08-28T11:12:48.672Z,30.50
2018-08-28T11:15:46.744Z,31.30
2018-08-28T11:18:44.811Z,32.20
2018-08-28T11:21:43.303Z,33.00
2018-08-28T11:24:43.677Z,33.70
2018-08-28T11:27:42.188Z,34.10
2018-08-28T11:30:40.116Z,34.50
2018-08-28T11:33:37.963Z,34.90
2018-08-28T11:36:35.937Z,35.50
2018-08-28T11:39:33.924Z,36.00
2018-08-28T11:42:32.365Z,36.60
2018-08-28T11:45:30.642Z,37.10
2018-08-28T11:48:29.684Z,37.40
2018-08-28T11:51:27.774Z,37.80
2018-08-28T11:54:26.020Z,38.20
2018-08-28T11:57:24.104Z,38.80
2018-08-28T12:00:23.261Z,39.10
2018-08-28T12:03:21.437Z,39.20
2018-08-28T12:06:19.496Z,39.40
2018-08-28T12:09:18.368Z,39.70
2018-08-28T12:12:16.847Z,39.90
2018-08-28T12:15:14.920Z,39.80
2018-08-28T12:18:12.963Z,39.80
2018-08-28T12:21:10.865Z,39.60
2018-08-28T12:24:08.985Z,40.00
2018-08-28T12:27:07.066Z,40.40
2018-08-28T12:30:05.317Z,40.50
2018-08-28T12:33:03.403Z,40.50
2018-08-28T12:36:01.645Z,40.40
2018-08-28T12:38:59.623Z,40.40
2018-08-28T12:41:57.854Z,40.60
2018-08-28T12:44:55.827Z,40.90
2018-08-28T12:47:53.763Z,40.80
2018-08-28T12:50:51.931Z,40.90
2018-08-28T12:53:49.997Z,41.20
2018-08-28T12:56:48.055Z,41.80
2018-08-28T12:59:46.177Z,42.30
2018-08-28T13:02:44.380Z,42.40
2018-08-28T13:05:43.500Z,42.50
2018-08-28T13:08:41.508Z,42.80
2018-08-28T13:11:39.603Z,43.20
2018-08-28T13:14:37.765Z,43.40
2018-08-28T13:17:35.928Z,43.50
2018-08-28T13:20:34.788Z,43.90
2018-08-28T13:23:32.868Z,44.00
2018-08-28T13:26:31.217Z,44.00
2018-08-28T13:29:29.112Z,44.20
2018-08-28T13:32:28.264Z,44.40
2018-08-28T13:35:26.219Z,44.60
2018-08-28T13:38:24.276Z,44.90
2018-08-28T13:41:22.341Z,45.10
2018-08-28T13:44:21.640Z,45.50
2018-08-28T13:47:19.624Z,45.70
2018-08-28T13:50:17.693Z,45.40
2018-08-28T13:53:15.691Z,45.50
2018-08-28T13:56:13.757Z,45.40
2018-08-28T13:59:11.766Z,44.80
2018-08-28T14:02:09.988Z,44.30
2018-08-28T14:05:08.172Z,43.80
2018-08-28T14:08:06.230Z,43.80
2018-08-28T14:11:04.273Z,43.80
2018-08-28T14:14:02.598Z,43.70
2018-08-28T14:17:00.487Z,43.80
2018-08-28T14:19:59.684Z,43.80
2018-08-28T14:22:57.642Z,43.70
2018-08-28T14:25:55.832Z,43.80
2018-08-28T14:28:53.766Z,44.10
2018-08-28T14:31:51.816Z,44.60
2018-08-28T14:34:49.987Z,44.90
2018-08-28T14:37:48.233Z,45.00
2018-08-28T14:40:47.254Z,45.00
2018-08-28T14:43:45.176Z,44.90
2018-08-28T14:46:43.348Z,45.10
2018-08-28T14:49:41.348Z,45.10
2018-08-28T14:52:40.424Z,44.70
2018-08-28T14:55:38.549Z,44.20
2018-08-28T14:58:36.623Z,43.60
2018-08-28T15:01:34.689Z,43.40
2018-08-28T15:04:32.637Z,43.20
2018-08-28T15:07:30.635Z,43.10
2018-08-28T15:10:29.786Z,42.80
2018-08-28T15:13:28.641Z,42.70
2018-08-28T15:16:26.813Z,42.80
2018-08-28T15:19:24.867Z,42.90
2018-08-28T15:22:22.931Z,42.90
2018-08-28T15:25:22.032Z,42.80
2018-08-28T15:28:19.852Z,42.50
2018-08-28T15:31:17.772Z,42.30
2018-08-28T15:34:15.890Z,41.90
2018-08-28T15:37:13.953Z,41.80
2018-08-28T15:40:13.041Z,41.90
2018-08-28T15:43:11.107Z,42.00
2018-08-28T15:46:09.267Z,42.20
2018-08-28T15:49:07.302Z,42.20
2018-08-28T15:52:05.235Z,42.30
2018-08-28T15:55:03.141Z,42.10
2018-08-28T15:58:02.034Z,42.30
2018-08-28T16:01:00.060Z,42.40
2018-08-28T16:03:58.246Z,42.30
2018-08-28T16:06:58.379Z,42.40
2018-08-28T16:09:56.505Z,42.70
2018-08-28T16:12:54.476Z,43.00
2018-08-28T16:15:52.517Z,43.20
2018-08-28T16:18:50.814Z,43.30
2018-08-28T16:22:06.252Z,43.20
2018-08-28T16:25:04.319Z,42.70
2018-08-28T16:28:02.667Z,42.00
2018-08-28T16:31:00.854Z,41.50
2018-08-28T16:33:58.878Z,41.20
2018-08-28T16:36:57.916Z,40.90
2018-08-28T16:39:56.219Z,40.80
2018-08-28T16:42:54.396Z,40.80
2018-08-28T16:45:53.600Z,40.90
2018-08-28T16:48:51.678Z,40.90
2018-08-28T16:51:49.828Z,40.80
2018-08-28T16:54:47.816Z,40.70
2018-08-28T16:57:45.932Z,40.40
2018-08-28T17:00:44.157Z,40.00
2018-08-28T17:03:42.097Z,39.60
2018-08-28T17:06:40.221Z,39.10
2018-08-28T17:09:38.277Z,38.40
2018-08-28T17:12:36.244Z,37.90
2018-08-28T17:15:34.435Z,37.40
2018-08-28T17:18:33.405Z,36.80
2018-08-28T17:21:31.567Z,36.10
2018-08-28T17:24:29.652Z,35.50
2018-08-28T17:27:27.681Z,35.00
2018-08-28T17:30:25.731Z,34.60
2018-08-28T17:33:23.768Z,34.20
2018-08-28T17:36:21.760Z,33.80
2018-08-28T17:39:20.511Z,33.20
2018-08-28T17:42:18.591Z,32.50
2018-08-28T17:45:17.392Z,31.80
2018-08-28T17:48:16.897Z,31.10
2018-08-28T17:51:19.787Z,30.50
2018-08-28T17:54:22.245Z,29.90
2018-08-28T17:57:22.955Z,29.40
2018-08-28T18:00:24.801Z,29.00
2018-08-28T18:03:23.232Z,28.60
2018-08-28T18:06:21.241Z,28.20
2018-08-28T18:09:20.355Z,27.90
2018-08-28T18:12:18.462Z,27.50
2018-08-28T18:15:17.228Z,27.10
2018-08-28T18:18:15.367Z,26.80
2018-08-28T18:21:13.426Z,26.50
2018-08-28T18:24:11.602Z,26.20
2018-08-28T18:27:09.634Z,25.90
2018-08-28T18:30:07.835Z,25.70
2018-08-28T18:33:07.090Z,25.50
2018-08-28T18:36:06.275Z,25.30
2018-08-28T18:39:04.060Z,25.10
2018-08-28T18:42:02.096Z,24.90
2018-08-28T18:45:00.179Z,24.70
2018-08-28T18:47:59.325Z,24.50
2018-08-28T18:50:57.462Z,24.30
2018-08-28T18:53:56.408Z,24.20
2018-08-28T18:56:54.589Z,24.00
2018-08-28T18:59:52.815Z,23.90
2018-08-28T19:02:50.937Z,23.70
2018-08-28T19:05:49.812Z,23.60
2018-08-28T19:08:49.089Z,23.50
2018-08-28T19:11:51.004Z,23.40
2018-08-28T19:14:49.165Z,23.30
2018-08-28T19:17:47.318Z,23.20
2018-08-28T19:20:46.430Z,23.10
2018-08-28T19:23:44.387Z,22.90
2018-08-28T19:26:42.402Z,22.90
2018-08-28T19:29:40.427Z,22.80
2018-08-28T19:32:38.431Z,22.70
2018-08-28T19:35:36.506Z,22.60
2018-08-28T19:38:34.695Z,22.60
2018-08-28T19:41:33.006Z,22.50
2018-08-28T19:44:31.912Z,22.40
2018-08-28T19:47:30.072Z,22.30
2018-08-28T19:50:28.115Z,22.20
2018-08-28T19:55:53.820Z,22.20
2018-08-28T19:58:52.112Z,22.00
2018-08-28T20:01:50.213Z,22.00
2018-08-28T20:04:49.065Z,21.90
2018-08-28T20:07:48.065Z,21.80
2018-08-28T20:10:46.099Z,21.70
2018-08-28T20:13:47.022Z,21.60
2018-08-28T20:16:45.112Z,21.50
2018-08-28T20:19:47.511Z,21.50
2018-08-28T20:22:50.783Z,21.40
2018-08-28T20:25:51.497Z,21.40
2018-08-28T20:28:53.751Z,21.40
2018-08-28T20:31:54.325Z,21.30
2018-08-28T20:34:53.474Z,21.30
2018-08-28T20:37:51.556Z,21.20
2018-08-28T20:40:49.550Z,21.20
2018-08-28T20:43:47.800Z,21.20
2018-08-28T20:46:45.657Z,21.10
2018-08-28T20:49:43.608Z,21.10
2018-08-28T20:52:45.483Z,21.00
2018-08-28T20:55:49.598Z,21.00
2018-08-28T20:58:56.660Z,20.90
2018-08-28T21:01:58.424Z,20.90
2018-08-28T21:04:56.536Z,20.70
2018-08-28T21:07:54.591Z,20.60
2018-08-28T21:10:52.652Z,20.50
2018-08-28T21:13:50.880Z,20.40
2018-08-28T21:16:49.892Z,20.30
2018-08-28T21:19:48.410Z,20.20
2018-08-28T21:22:47.211Z,20.10
2018-08-28T21:25:45.170Z,20.10
2018-08-28T21:28:43.064Z,20.00
2018-08-28T21:31:41.978Z,19.90
2018-08-28T21:34:40.173Z,19.80
2018-08-28T21:37:39.348Z,19.80
2018-08-28T21:40:38.358Z,19.70
2018-08-28T21:43:36.536Z,19.60
2018-08-28T21:46:34.544Z,19.50
2018-08-28T21:49:33.550Z,19.40
2018-08-28T21:52:33.607Z,19.40
2018-08-28T21:55:31.924Z,19.30
2018-08-28T21:58:30.116Z,19.20
2018-08-28T22:01:28.110Z,19.20
2018-08-28T22:04:26.195Z,19.10
2018-08-28T22:07:30.203Z,19.00
2018-08-28T22:10:28.368Z,18.90
2018-08-28T22:13:26.314Z,18.90
2018-08-28T22:16:24.323Z,18.80
2018-08-28T22:19:22.362Z,18.80
2018-08-28T22:22:20.556Z,18.70
2018-08-28T22:25:18.592Z,18.70
2018-08-28T22:28:16.653Z,18.70
2018-08-28T22:31:14.951Z,18.60
2018-08-28T22:34:13.177Z,18.60
2018-08-28T22:37:11.409Z,18.60
2018-08-28T22:40:09.393Z,18.50
2018-08-28T22:43:07.321Z,18.50
2018-08-28T22:46:05.415Z,18.40
2018-08-28T22:49:03.464Z,18.40
2018-08-28T22:52:01.538Z,18.30
2018-08-28T22:54:59.893Z,18.20
2018-08-28T22:57:58.052Z,18.10
2018-08-28T23:00:56.223Z,18.10
2018-08-28T23:03:54.583Z,18.00
2018-08-28T23:06:52.765Z,18.00
2018-08-28T23:09:53.889Z,17.90
2018-08-28T23:12:52.047Z,17.90
2018-08-28T23:15:50.140Z,17.80
2018-08-28T23:18:48.424Z,17.70
2018-08-28T23:21:46.511Z,17.60
2018-08-28T23:24:44.481Z,17.60
2018-08-28T23:27:42.544Z,17.50
2018-08-28T23:30:40.494Z,17.50
2018-08-28T23:33:39.588Z,17.40
2018-08-28T23:36:37.853Z,17.30
2018-08-28T23:39:36.020Z,17.20
2018-08-28T23:42:35.215Z,17.10
2018-08-28T23:45:33.482Z,17.10
2018-08-28T23:48:31.531Z,17.00
2018-08-28T23:51:29.702Z,16.90
2018-08-28T23:54:27.747Z,16.90
2018-08-28T23:57:26.131Z,16.80
